Time;durP1;ratioP1;P1;durP2;ratioP2;P2;SDS_P1;SDS_P2;PMS_P1;PMS_P2;Temp;Humidity;BMP_temperature;BMP_pressure;BME280_temperature;BME280_humidity;BME280_pressure;Samples;Min_cycle;Max_cycle;Signal;HPM_P1;HPM_P2
2023/10/02 00:03:39;;;;;;;;;;;;;;;16.39;100.00;100426.22;12208178;19;19907;-84
2023/10/02 00:07:42;;;;;;;;;;;;;;;16.36;100.00;100418.41;12206992;19;19918;-82
2023/10/02 00:11:45;;;;;;;;;;;;;;;16.36;100.00;100415.63;12187953;19;19933;-80
2023/10/02 00:15:53;;;;;;;;;;;;;;;16.33;100.00;100416.19;12208628;19;20326;-83
2023/10/02 00:20:05;;;;;;;;;;;;;;;16.32;100.00;100422.00;12210317;19;19922;-82
2023/10/02 00:24:07;;;;;;;;;;;;;;;16.31;100.00;100415.59;12183168;19;19914;-82
2023/10/02 00:28:10;;;;;;;;;;;;;;;16.28;100.00;100416.16;12214116;19;19918;-80
2023/10/02 00:32:19;;;;;;;;;;;;;;;16.28;100.00;100418.09;12215855;19;19911;-80
2023/10/02 00:36:22;;;;;;;;;;;;;;;16.24;100.00;100420.59;12192498;19;19907;-82
2023/10/02 00:40:28;;;;;;;;;;;;;;;16.24;100.00;100422.53;12230315;19;19994;-84
2023/10/02 00:44:51;;;;;;;;;;;;;;;16.22;100.00;100425.59;12221481;19;19918;-84
2023/10/02 00:48:53;;;;;;;;;;;;;;;16.16;100.00;100412.78;12230482;19;19910;-85
2023/10/02 00:52:59;;;;;;;;;;;;;;;16.14;100.00;100415.81;12230645;19;19986;-82
2023/10/02 00:57:16;;;;;;;;;;;;;;;16.12;100.00;100420.84;12223405;19;20378;-81
2023/10/02 01:01:19;;;;;;;;;;;;;;;16.08;100.00;100419.69;12201402;19;19922;-83
2023/10/02 01:05:21;;;;;;;;;;;;;;;16.06;100.00;100421.06;12215907;19;20003;-81
2023/10/02 01:09:28;;;;;;;;;;;;;;;16.05;100.00;100417.44;12211612;19;20254;-80
2023/10/02 01:13:38;;;;;;;;;;;;;;;16.03;100.00;100427.16;12190575;19;20342;-81
2023/10/02 01:17:40;;;;;;;;;;;;;;;16.03;100.00;100424.38;12208748;19;20267;-82
2023/10/02 01:21:45;;;;;;;;;;;;;;;16.02;100.00;100423.56;12187357;19;19915;-81
2023/10/02 01:25:48;;;;;;;;;;;;;;;16.02;100.00;100419.94;12204875;19;19979;-82
2023/10/02 01:30:14;;;;;;;;;;;;;;;15.99;100.00;100417.72;12206700;19;19930;-82
2023/10/02 01:34:33;;;;;;;;;;;;;;;15.97;100.00;100417.13;12184748;19;19906;-83
2023/10/02 01:38:37;;;;;;;;;;;;;;;15.94;100.00;100419.38;12204077;19;19932;-80
2023/10/02 01:42:39;;;;;;;;;;;;;;;15.93;100.00;100416.84;12189716;19;19970;-82
2023/10/02 01:46:49;;;;;;;;;;;;;;;15.91;100.00;100417.13;12205366;19;19911;-81
2023/10/02 01:50:53;;;;;;;;;;;;;;;15.87;100.00;100421.53;12204747;19;19911;-81
2023/10/02 01:54:58;;;;;;;;;;;;;;;15.85;100.00;100418.19;12183779;19;19920;-80
2023/10/02 01:59:11;;;;;;;;;;;;;;;15.82;100.00;100404.00;12206940;19;19919;-81
2023/10/02 02:03:14;;;;;;;;;;;;;;;15.78;100.00;100414.81;12200716;19;19927;-80
2023/10/02 02:07:20;;;;;;;;;;;;;;;15.75;100.00;100408.97;12193915;19;19918;-84
2023/10/02 02:11:23;;;;;;;;;;;;;;;15.73;100.00;100403.69;12229101;19;20327;-83
2023/10/02 02:15:25;;;;;;;;;;;;;;;15.71;100.00;100403.13;12224447;19;19921;-81
2023/10/02 02:19:30;;;;;;;;;;;;;;;15.71;100.00;100403.97;12197960;19;19925;-81
2023/10/02 02:23:32;;;;;;;;;;;;;;;15.68;100.00;100398.09;12215048;19;19911;-82
2023/10/02 02:27:36;;;;;;;;;;;;;;;15.65;100.00;100398.63;12219906;19;19919;-80
2023/10/02 02:31:39;;;;;;;;;;;;;;;15.63;100.00;100398.88;12194843;19;19981;-81
2023/10/02 02:35:44;;;;;;;;;;;;;;;15.64;100.00;100405.25;12218441;19;19930;-80
2023/10/02 02:39:46;;;;;;;;;;;;;;;15.64;100.00;100399.69;12201510;19;19932;-80
2023/10/02 02:43:52;;;;;;;;;;;;;;;15.66;100.00;100405.84;12226356;19;19911;-80
2023/10/02 02:47:55;;;;;;;;;;;;;;;15.64;100.00;100403.31;12229781;19;19942;-86
2023/10/02 02:51:59;;;;;;;;;;;;;;;15.59;100.00;100405.25;12208878;19;19910;-81
2023/10/02 02:56:14;;;;;;;;;;;;;;;15.50;100.00;100405.75;12225888;19;19917;-84
2023/10/02 03:00:29;;;;;;;;;;;;;;;15.42;100.00;100405.41;12227058;19;19928;-80
2023/10/02 03:04:31;;;;;;;;;;;;;;;15.25;100.00;100408.34;12198121;19;19985;-79
2023/10/02 03:08:41;;;;;;;;;;;;;;;15.12;100.00;100417.97;12217561;19;19911;-82
2023/10/02 03:12:50;;;;;;;;;;;;;;;15.00;100.00;100403.44;12199395;19;19978;-82
2023/10/02 03:16:52;;;;;;;;;;;;;;;14.89;100.00;100401.66;12219201;19;19915;-82
2023/10/02 03:20:53;;;;;;;;;;;;;;;14.81;100.00;100406.63;12220749;19;19919;-81
2023/10/02 03:25:24;;;;;;;;;;;;;;;14.74;100.00;100410.69;12199302;19;19931;-82
2023/10/02 03:29:22;;;;;;;;;;;;;;;14.65;100.00;100409.50;12217658;19;20355;-81
2023/10/02 03:33:26;;;;;;;;;;;;;;;14.56;100.00;100407.19;12219064;19;19911;-85
2023/10/02 03:37:27;;;;;;;;;;;;;;;14.49;100.00;100403.75;12197028;19;19977;-80
2023/10/02 03:41:44;;;;;;;;;;;;;;;14.39;100.00;100398.09;12225404;19;19907;-81
2023/10/02 03:45:48;;;;;;;;;;;;;;;14.32;100.00;100405.78;12196739;19;20721;-82
2023/10/02 03:49:50;;;;;;;;;;;;;;;14.29;100.00;100407.13;12213783;19;20359;-80
2023/10/02 03:54:17;;;;;;;;;;;;;;;14.24;100.00;100400.69;12214836;19;20003;-80
2023/10/02 03:58:16;;;;;;;;;;;;;;;14.18;100.00;100398.97;12197169;19;19927;-82
2023/10/02 04:02:24;;;;;;;;;;;;;;;14.07;100.00;100401.63;12221584;19;19922;-81
2023/10/02 04:06:33;;;;;;;;;;;;;;;14.06;100.00;100382.47;12218376;19;19903;-82
2023/10/02 04:10:51;;;;;;;;;;;;;;;14.10;100.00;100384.47;12195669;19;19922;-81
2023/10/02 04:14:54;;;;;;;;;;;;;;;14.18;100.00;100393.44;12218001;19;19934;-82
2023/10/02 04:18:59;;;;;;;;;;;;;;;14.21;100.00;100382.66;12199282;19;20049;-81
2023/10/02 04:23:21;;;;;;;;;;;;;;;14.25;100.00;100383.00;12217176;19;20233;-81
2023/10/02 04:27:25;;;;;;;;;;;;;;;14.27;100.00;100383.53;12213873;19;19924;-81
2023/10/02 04:31:29;;;;;;;;;;;;;;;14.29;100.00;100378.59;12192719;19;19911;-83
2023/10/02 04:35:44;;;;;;;;;;;;;;;14.30;100.00;100383.84;12217963;19;20299;-81
2023/10/02 04:39:54;;;;;;;;;;;;;;;14.29;100.00;100387.75;12198786;19;19918;-84
2023/10/02 04:43:57;;;;;;;;;;;;;;;14.30;100.00;100394.94;12222616;19;19911;-81
2023/10/02 04:48:00;;;;;;;;;;;;;;;14.31;100.00;100393.03;12221842;19;19914;-80
2023/10/02 04:52:04;;;;;;;;;;;;;;;14.31;100.00;100384.72;12203408;19;20469;-86
2023/10/02 05:00:34;;;;;;;;;;;;;;;14.32;100.00;100395.53;12219013;19;20277;-80
2023/10/02 05:04:37;;;;;;;;;;;;;;;14.32;100.00;100400.25;12201285;19;19919;-82
2023/10/02 05:12:57;;;;;;;;;;;;;;;14.32;100.00;100405.78;12203122;19;19927;-80
2023/10/02 05:17:18;;;;;;;;;;;;;;;14.30;100.00;100399.66;12222387;19;19926;-82
2023/10/02 05:21:35;;;;;;;;;;;;;;;14.28;100.00;100408.25;12223164;19;19922;-82
2023/10/02 05:25:41;;;;;;;;;;;;;;;14.30;100.00;100416.28;12194408;19;19907;-86
2023/10/02 05:29:43;;;;;;;;;;;;;;;14.28;100.00;100421.28;12217116;19;19915;-81
2023/10/02 05:33:44;;;;;;;;;;;;;;;14.25;100.00;100407.94;12195192;19;19931;-81
2023/10/02 05:37:50;;;;;;;;;;;;;;;14.23;100.00;100412.91;12216239;19;19914;-82
2023/10/02 05:41:56;;;;;;;;;;;;;;;14.22;100.00;100420.38;12219972;19;20674;-86
2023/10/02 05:46:01;;;;;;;;;;;;;;;14.18;100.00;100424.75;12195160;19;19923;-82
2023/10/02 05:50:04;;;;;;;;;;;;;;;14.17;100.00;100417.53;12213568;19;20392;-85
2023/10/02 05:54:06;;;;;;;;;;;;;;;14.17;100.00;100422.25;12217251;19;19992;-84
2023/10/02 05:58:20;;;;;;;;;;;;;;;14.19;100.00;100409.81;12200282;19;19911;-82
2023/10/02 06:02:26;;;;;;;;;;;;;;;14.23;100.00;100410.13;12224892;19;20246;-80
2023/10/02 06:06:40;;;;;;;;;;;;;;;14.24;100.00;100411.78;12214984;19;19915;-85
2023/10/02 06:10:44;;;;;;;;;;;;;;;14.23;100.00;100421.22;12190531;19;19933;-85
2023/10/02 06:14:47;;;;;;;;;;;;;;;14.24;100.00;100414.56;12210943;19;19952;-82
2023/10/02 06:19:00;;;;;;;;;;;;;;;14.28;100.00;100415.72;12188475;19;19915;-83
2023/10/02 06:23:06;;;;;;;;;;;;;;;14.33;100.00;100421.31;12212727;19;20247;-83
2023/10/02 06:27:13;;;;;;;;;;;;;;;14.42;100.00;100432.78;12211705;19;19919;-81
2023/10/02 06:31:30;;;;;;;;;;;;;;;14.49;100.00;100431.50;12189873;19;19907;-81
2023/10/02 06:35:32;;;;;;;;;;;;;;;14.54;100.00;100431.56;12210507;19;19910;-81
2023/10/02 06:39:35;;;;;;;;;;;;;;;14.59;100.00;100431.63;12212580;19;19915;-80
2023/10/02 06:43:37;;;;;;;;;;;;;;;14.67;100.00;100432.25;12190104;19;19930;-80
2023/10/02 06:47:39;;;;;;;;;;;;;;;14.70;100.00;100437.28;12208234;19;20569;-81
2023/10/02 06:51:41;;;;;;;;;;;;;;;14.74;100.00;100433.72;12187537;19;19918;-81
2023/10/02 06:55:43;;;;;;;;;;;;;;;14.80;100.00;100443.75;12219282;19;19955;-82
2023/10/02 06:59:52;;;;;;;;;;;;;;;14.87;100.00;100442.69;12227188;19;19939;-81
2023/10/02 07:03:56;;;;;;;;;;;;;;;14.95;100.00;100445.00;12194719;19;19907;-83
2023/10/02 07:08:01;;;;;;;;;;;;;;;15.04;100.00;100447.03;12192394;19;19911;-80
2023/10/02 07:12:13;;;;;;;;;;;;;;;15.12;100.00;100458.78;12220248;19;19914;-80
2023/10/02 07:16:17;;;;;;;;;;;;;;;15.22;100.00;100445.78;12199636;19;19913;-80
2023/10/02 07:20:20;;;;;;;;;;;;;;;15.34;100.00;100444.78;12220322;19;19915;-82
2023/10/02 07:24:28;;;;;;;;;;;;;;;15.48;100.00;100444.06;12221234;19;19915;-81
2023/10/02 07:28:31;;;;;;;;;;;;;;;15.65;100.00;100437.50;12197001;19;19918;-82
2023/10/02 07:32:34;;;;;;;;;;;;;;;15.78;100.00;100437.06;12220275;19;19921;-81
2023/10/02 07:36:44;;;;;;;;;;;;;;;15.98;100.00;100441.91;12216865;19;19945;-82
2023/10/02 07:40:48;;;;;;;;;;;;;;;16.19;100.00;100442.81;12225318;19;19926;-82
2023/10/02 07:44:52;;;;;;;;;;;;;;;16.40;100.00;100446.50;12220939;19;19914;-80
2023/10/02 07:49:00;;;;;;;;;;;;;;;16.60;100.00;100437.41;12196295;19;19931;-80
2023/10/02 07:53:06;;;;;;;;;;;;;;;16.77;100.00;100449.13;12215664;19;19906;-81
2023/10/02 07:57:10;;;;;;;;;;;;;;;16.95;100.00;100444.97;12218162;19;19907;-80
2023/10/02 08:01:12;;;;;;;;;;;;;;;17.10;100.00;100438.59;12199421;19;19919;-81
2023/10/02 08:05:19;;;;;;;;;;;;;;;17.38;100.00;100441.94;12221230;19;20284;-81
2023/10/02 08:09:35;;;;;;;;;;;;;;;17.53;100.00;100444.72;12216340;19;19915;-83
2023/10/02 08:13:39;;;;;;;;;;;;;;;17.75;100.00;100442.41;12198864;19;19910;-80
2023/10/02 08:21:48;;;;;;;;;;;;;;;18.14;100.00;100438.16;12200811;19;19918;-82
2023/10/02 08:26:02;;;;;;;;;;;;;;;18.36;100.00;100435.00;12216363;19;19911;-83
2023/10/02 08:30:20;;;;;;;;;;;;;;;18.58;100.00;100443.78;12216435;19;19911;-81
2023/10/02 08:34:28;;;;;;;;;;;;;;;18.74;100.00;100435.34;12198671;19;20440;-81
2023/10/02 08:38:30;;;;;;;;;;;;;;;18.84;100.00;100438.09;12217598;19;19910;-83
2023/10/02 08:42:32;;;;;;;;;;;;;;;19.06;100.00;100441.28;12224953;19;19925;-84
2023/10/02 08:46:35;;;;;;;;;;;;;;;19.33;100.00;100435.19;12193759;19;19911;-82
2023/10/02 08:50:37;;;;;;;;;;;;;;;19.54;100.00;100437.78;12211728;19;19915;-81
2023/10/02 08:54:41;;;;;;;;;;;;;;;19.73;100.00;100435.94;12190702;19;20555;-81
2023/10/02 08:58:43;;;;;;;;;;;;;;;19.89;99.45;100433.81;12211461;19;19911;-83
2023/10/02 09:02:54;;;;;;;;;;;;;;;20.17;98.20;100428.47;12211430;19;19978;-81
2023/10/02 09:07:15;;;;;;;;;;;;;;;20.45;95.52;100432.28;12191025;19;20058;-81
2023/10/02 09:11:17;;;;;;;;;;;;;;;20.61;94.91;100435.72;12213125;19;20334;-82
2023/10/02 09:15:25;;;;;;;;;;;;;;;20.71;93.71;100432.81;12214994;19;20042;-81
2023/10/02 09:19:34;;;;;;;;;;;;;;;20.89;92.07;100426.34;12220869;19;19925;-86
2023/10/02 09:23:39;;;;;;;;;;;;;;;21.14;89.31;100424.28;12260604;19;19915;-84
2023/10/02 09:27:55;;;;;;;;;;;;;;;21.25;89.04;100424.94;12230789;19;19910;-85
2023/10/02 09:31:57;;;;;;;;;;;;;;;21.41;90.30;100425.53;12236918;19;19911;-83
2023/10/02 09:36:00;;;;;;;;;;;;;;;21.43;88.68;100426.06;12225355;19;19926;-83
2023/10/02 09:40:28;;;;;;;;;;;;;;;21.60;88.45;100420.72;12199924;19;19911;-81
2023/10/02 09:44:40;;;;;;;;;;;;;;;21.93;87.18;100412.22;12219570;19;20473;-84
2023/10/02 09:48:46;;;;;;;;;;;;;;;22.24;85.11;100406.84;12194614;19;19914;-82
2023/10/02 09:53:08;;;;;;;;;;;;;;;22.44;83.21;100394.31;12213853;19;19907;-82
2023/10/02 09:57:15;;;;;;;;;;;;;;;22.53;79.86;100398.88;12214494;19;19922;-84
2023/10/02 10:05:47;;;;;;;;;;;;;;;23.06;80.01;100377.69;12216261;19;19914;-82
2023/10/02 10:10:13;;;;;;;;;;;;;;;23.25;78.10;100385.09;12190571;19;20278;-80
2023/10/02 10:14:37;;;;;;;;;;;;;;;23.45;78.15;100375.31;12214173;19;20249;-83
2023/10/02 10:23:15;;;;;;;;;;;;;;;23.72;77.00;100374.31;12214654;19;19922;-81
2023/10/02 10:27:37;;;;;;;;;;;;;;;23.90;74.22;100373.22;12220655;19;19949;-81
2023/10/02 10:31:38;;;;;;;;;;;;;;;24.05;73.00;100367.13;12213076;19;19911;-82
2023/10/02 10:35:49;;;;;;;;;;;;;;;24.27;70.55;100360.56;12227636;19;20370;-79
2023/10/02 10:39:52;;;;;;;;;;;;;;;24.47;69.97;100376.03;12204393;19;19907;-80
2023/10/02 10:47:56;;;;;;;;;;;;;;;24.71;68.56;100371.91;12225642;19;19918;-79
2023/10/02 10:52:00;;;;;;;;;;;;;;;24.94;67.95;100355.66;12205502;19;20380;-80
2023/10/02 10:56:05;;;;;;;;;;;;;;;24.96;67.88;100353.34;12226014;19;19918;-79
2023/10/02 11:04:28;;;;;;;;;;;;;;;25.14;66.94;100351.34;12201476;19;19911;-79
2023/10/02 11:08:33;;;;;;;;;;;;;;;25.25;67.02;100338.53;12220699;19;19934;-80
2023/10/02 11:12:38;;;;;;;;;;;;;;;25.35;65.05;100331.72;12222952;19;19914;-78
2023/10/02 11:16:49;;;;;;;;;;;;;;;25.49;64.33;100328.66;12198508;19;19928;-79
2023/10/02 11:20:54;;;;;;;;;;;;;;;25.69;63.66;100319.44;12217329;19;20024;-78
2023/10/02 11:24:56;;;;;;;;;;;;;;;25.90;62.68;100317.53;12196390;19;20347;-79
2023/10/02 11:28:58;;;;;;;;;;;;;;;26.06;61.08;100306.50;12241625;19;20449;-80
2023/10/02 11:33:04;;;;;;;;;;;;;;;26.26;60.71;100310.50;12242062;19;19968;-80
2023/10/02 11:37:11;;;;;;;;;;;;;;;26.56;60.45;100299.16;12220308;19;19914;-80
2023/10/02 11:41:15;;;;;;;;;;;;;;;27.00;61.01;100296.75;12243495;19;20377;-83
2023/10/02 11:45:17;;;;;;;;;;;;;;;27.63;60.51;100291.69;12243444;19;19954;-79
2023/10/02 11:49:19;;;;;;;;;;;;;;;28.36;55.42;100281.50;12217056;19;19914;-83
2023/10/02 11:53:21;;;;;;;;;;;;;;;29.00;51.34;100276.88;12235918;19;19910;-81
2023/10/02 11:57:23;;;;;;;;;;;;;;;29.48;49.50;100275.78;12242223;19;19907;-82
2023/10/02 12:01:26;;;;;;;;;;;;;;;29.73;48.98;100262.22;12201853;19;19932;-79
2023/10/02 12:05:30;;;;;;;;;;;;;;;29.77;47.27;100252.94;12217818;19;19914;-82
2023/10/02 12:09:33;;;;;;;;;;;;;;;30.05;45.95;100247.94;12220352;19;19921;-80
2023/10/02 12:13:36;;;;;;;;;;;;;;;30.30;43.37;100233.50;12194601;19;19935;-82
2023/10/02 12:17:39;;;;;;;;;;;;;;;30.86;42.27;100242.38;12219367;19;20239;-81
2023/10/02 12:21:41;;;;;;;;;;;;;;;30.96;42.68;100231.59;12189377;19;19911;-80
2023/10/02 12:26:04;;;;;;;;;;;;;;;31.40;41.52;100228.34;12213517;19;19907;-81
2023/10/02 12:30:07;;;;;;;;;;;;;;;31.80;39.47;100227.78;12211423;19;20443;-79
2023/10/02 12:34:08;;;;;;;;;;;;;;;32.10;39.39;100222.13;12195446;19;19910;-80
2023/10/02 12:38:11;;;;;;;;;;;;;;;32.00;39.00;100212.19;12219485;19;19914;-80
2023/10/02 12:42:13;;;;;;;;;;;;;;;31.83;39.72;100206.22;12217893;19;19915;-80
2023/10/02 12:46:15;;;;;;;;;;;;;;;31.99;40.83;100209.75;12192692;19;19919;-79
2023/10/02 12:50:19;;;;;;;;;;;;;;;32.16;38.39;100196.94;12209541;19;19911;-79
2023/10/02 12:54:22;;;;;;;;;;;;;;;32.54;36.66;100190.09;12210337;19;19914;-81
2023/10/02 12:58:24;;;;;;;;;;;;;;;32.54;35.95;100190.09;12189089;19;19915;-80
2023/10/02 13:02:25;;;;;;;;;;;;;;;31.62;37.55;100175.38;12210160;19;19918;-80
2023/10/02 13:06:29;;;;;;;;;;;;;;;30.79;38.43;100176.84;12210205;19;20003;-79
2023/10/02 13:10:31;;;;;;;;;;;;;;;29.90;38.76;100174.97;12182939;19;19917;-80
2023/10/02 13:14:34;;;;;;;;;;;;;;;29.33;38.44;100174.41;12199548;19;19941;-80
2023/10/02 13:18:36;;;;;;;;;;;;;;;29.19;38.93;100171.22;12205029;19;19942;-81
2023/10/02 13:22:38;;;;;;;;;;;;;;;29.11;39.60;100169.38;12210830;19;19914;-80
2023/10/02 13:26:41;;;;;;;;;;;;;;;28.94;39.83;100160.00;12217766;19;19914;-79
2023/10/02 13:30:43;;;;;;;;;;;;;;;28.66;39.83;100159.25;12187875;19;19922;-80
2023/10/02 13:34:45;;;;;;;;;;;;;;;28.46;40.18;100153.44;12210768;19;20025;-79
2023/10/02 13:38:48;;;;;;;;;;;;;;;28.17;39.71;100149.81;12208362;19;19918;-78
2023/10/02 13:42:49;;;;;;;;;;;;;;;28.03;40.36;100143.72;12182966;19;19946;-78
2023/10/02 13:46:51;;;;;;;;;;;;;;;27.77;41.09;100140.44;12198971;19;19911;-79
2023/10/02 13:50:54;;;;;;;;;;;;;;;27.63;41.62;100141.66;12199612;19;20708;-77
2023/10/02 13:55:19;;;;;;;;;;;;;;;27.53;41.89;100127.19;12183090;19;19903;-81
2023/10/02 13:59:21;;;;;;;;;;;;;;;27.32;42.01;100130.16;12201923;19;20350;-78
2023/10/02 14:03:25;;;;;;;;;;;;;;;27.26;42.36;100127.56;12202961;19;19918;-78
2023/10/02 14:07:27;;;;;;;;;;;;;;;27.17;42.99;100118.38;12183308;19;19931;-81
2023/10/02 14:11:33;;;;;;;;;;;;;;;27.23;42.82;100110.47;12199868;19;19911;-80
2023/10/02 14:15:36;;;;;;;;;;;;;;;27.26;43.06;100107.75;12202308;19;19935;-80
2023/10/02 14:19:38;;;;;;;;;;;;;;;27.23;42.55;100099.16;12154341;19;19922;-78
2023/10/02 14:23:57;;;;;;;;;;;;;;;27.27;42.30;100102.91;12192482;19;19941;-78
2023/10/02 14:27:58;;;;;;;;;;;;;;;27.33;42.29;100097.84;12177106;19;19915;-78
2023/10/02 14:32:00;;;;;;;;;;;;;;;27.53;42.09;100099.69;12196191;19;19907;-82
2023/10/02 14:36:06;;;;;;;;;;;;;;;27.63;42.64;100093.53;12202340;19;19911;-78
2023/10/02 14:40:10;;;;;;;;;;;;;;;27.77;42.93;100078.97;12178980;19;20513;-81
2023/10/02 14:44:13;;;;;;;;;;;;;;;27.70;42.60;100076.78;12204457;19;19915;-82
2023/10/02 14:48:20;;;;;;;;;;;;;;;27.72;42.14;100082.06;12201346;19;19911;-81
2023/10/02 14:52:41;;;;;;;;;;;;;;;27.88;39.61;100073.69;12177992;19;20283;-81
2023/10/02 14:56:43;;;;;;;;;;;;;;;28.09;38.89;100071.44;12205565;19;19914;-80
2023/10/02 15:00:45;;;;;;;;;;;;;;;28.13;40.08;100066.69;12176821;19;19907;-82
2023/10/02 15:04:50;;;;;;;;;;;;;;;27.97;39.80;100057.34;12182015;19;20004;-81
2023/10/02 15:09:13;;;;;;;;;;;;;;;27.99;40.00;100056.97;12191993;19;20027;-80
2023/10/02 15:18:02;;;;;;;;;;;;;;;27.67;40.50;100052.00;12178494;19;19917;-84
2023/10/02 15:23:46;;;;;;;;;;;;;;;27.39;41.62;100053.97;12136743;19;19961;-80
2023/10/02 15:37:48;;;;;;;;;;;;;;;26.95;42.51;100042.44;12213260;19;19923;-80
2023/10/02 15:42:53;;;;;;;;;;;;;;;26.81;43.10;100038.00;12144014;19;20382;-84
2023/10/02 15:47:13;;;;;;;;;;;;;;;26.61;45.29;100038.94;12238811;19;19927;-81
2023/10/02 15:51:17;;;;;;;;;;;;;;;26.35;46.95;100037.25;12217202;19;19943;-83
2023/10/02 15:55:21;;;;;;;;;;;;;;;26.13;48.33;100035.66;12201194;19;19911;-79
2023/10/02 15:59:24;;;;;;;;;;;;;;;25.88;49.90;100034.75;12208050;19;19911;-79
2023/10/02 16:03:27;;;;;;;;;;;;;;;25.69;51.09;100031.56;12208139;19;19922;-78
2023/10/02 16:07:29;;;;;;;;;;;;;;;25.51;51.07;100035.72;12183899;19;19914;-82
2023/10/02 16:11:31;;;;;;;;;;;;;;;25.36;52.13;100023.91;12205776;19;19932;-79
2023/10/02 16:15:34;;;;;;;;;;;;;;;25.24;52.23;100024.66;12203050;19;21915;-79
2023/10/02 16:19:37;;;;;;;;;;;;;;;25.09;53.54;100025.22;12178635;19;19915;-81
2023/10/02 16:23:41;;;;;;;;;;;;;;;24.97;55.35;100022.34;12199377;19;19911;-80
2023/10/02 16:27:44;;;;;;;;;;;;;;;24.85;56.77;100013.78;12171757;19;19927;-80
2023/10/02 16:31:46;;;;;;;;;;;;;;;24.66;57.70;100005.75;12207722;19;19990;-79
2023/10/02 16:35:47;;;;;;;;;;;;;;;24.47;59.44;100007.00;12220638;19;19915;-82
2023/10/02 16:39:50;;;;;;;;;;;;;;;24.26;61.41;99998.44;12197127;19;19939;-78
2023/10/02 16:43:52;;;;;;;;;;;;;;;24.02;64.25;99996.22;12216495;19;19918;-80
2023/10/02 16:48:01;;;;;;;;;;;;;;;23.78;64.26;99987.50;12228218;19;19906;-79
2023/10/02 16:52:07;;;;;;;;;;;;;;;23.53;65.87;99986.34;12198802;19;19938;-78
2023/10/02 16:56:10;;;;;;;;;;;;;;;23.28;66.61;99990.84;12223035;19;19914;-81
2023/10/02 17:00:12;;;;;;;;;;;;;;;23.00;67.44;99991.16;12220565;19;19934;-79
2023/10/02 17:04:15;;;;;;;;;;;;;;;22.71;68.51;99989.72;12203041;19;19963;-81
2023/10/02 17:08:17;;;;;;;;;;;;;;;22.43;69.97;100002.38;12222069;19;19918;-78
2023/10/02 17:12:19;;;;;;;;;;;;;;;22.20;70.32;99996.84;12223811;19;19922;-79
2023/10/02 17:16:21;;;;;;;;;;;;;;;21.91;71.67;99983.28;12199848;19;19930;-79
2023/10/02 17:20:25;;;;;;;;;;;;;;;21.67;72.46;99980.00;12220048;19;19907;-79
2023/10/02 17:24:28;;;;;;;;;;;;;;;21.47;73.86;99986.94;12219840;19;19980;-80
2023/10/02 17:28:30;;;;;;;;;;;;;;;21.30;73.45;99987.63;12197883;19;19915;-79
2023/10/02 17:32:33;;;;;;;;;;;;;;;21.17;73.80;99989.31;12214803;19;20493;-78
2023/10/02 17:36:37;;;;;;;;;;;;;;;21.04;73.04;99993.00;12216038;19;20263;-78
2023/10/02 17:40:39;;;;;;;;;;;;;;;20.93;72.51;99990.41;12193926;19;19914;-78
2023/10/02 17:44:42;;;;;;;;;;;;;;;20.83;73.03;99990.66;12215870;19;20358;-79
2023/10/02 17:48:44;;;;;;;;;;;;;;;20.75;73.77;99991.38;12196083;19;19915;-80
2023/10/02 17:52:46;;;;;;;;;;;;;;;20.68;74.28;99991.00;12216668;19;19990;-80
2023/10/02 17:56:50;;;;;;;;;;;;;;;20.61;74.43;99993.34;12218280;19;19914;-79
2023/10/02 18:00:52;;;;;;;;;;;;;;;20.57;74.81;99989.53;12195434;19;20330;-79
2023/10/02 18:04:54;;;;;;;;;;;;;;;20.53;74.71;99985.72;12217835;19;19911;-79
2023/10/02 18:08:56;;;;;;;;;;;;;;;20.46;74.66;99986.06;12216289;19;19918;-78
2023/10/02 18:12:58;;;;;;;;;;;;;;;20.42;74.80;99979.47;12192585;19;19926;-80
2023/10/02 18:17:04;;;;;;;;;;;;;;;20.40;75.19;99976.97;12213278;19;20410;-81
2023/10/02 18:21:06;;;;;;;;;;;;;;;20.38;74.98;99973.66;12205738;19;20279;-79
2023/10/02 18:25:08;;;;;;;;;;;;;;;20.35;75.56;99977.09;12191658;19;19915;-78
2023/10/02 18:29:13;;;;;;;;;;;;;;;20.31;76.16;99976.03;12200900;19;19911;-78
2023/10/02 18:33:17;;;;;;;;;;;;;;;20.26;76.30;99974.19;12220958;19;19914;-79
2023/10/02 18:37:19;;;;;;;;;;;;;;;20.24;76.69;99981.22;12194429;19;19907;-78
2023/10/02 18:41:24;;;;;;;;;;;;;;;20.21;77.09;99977.06;12213728;19;20300;-78
2023/10/02 18:45:26;;;;;;;;;;;;;;;20.17;77.46;99981.63;12239972;19;19910;-80
2023/10/02 18:49:29;;;;;;;;;;;;;;;20.12;78.41;99984.53;12221506;19;19917;-82
2023/10/02 18:53:35;;;;;;;;;;;;;;;20.08;78.47;99986.28;12252528;19;19925;-81
2023/10/02 18:57:41;;;;;;;;;;;;;;;20.04;78.69;99974.03;12219941;19;20277;-80
2023/10/02 19:01:43;;;;;;;;;;;;;;;19.99;79.26;99969.41;12232026;19;19911;-80
2023/10/02 19:05:47;;;;;;;;;;;;;;;19.94;79.88;99958.28;12229965;19;19911;-81
2023/10/02 19:09:49;;;;;;;;;;;;;;;19.91;79.68;99963.69;12201092;19;19911;-79
2023/10/02 19:13:52;;;;;;;;;;;;;;;19.87;80.56;99960.69;12226346;19;19974;-79
2023/10/02 19:17:54;;;;;;;;;;;;;;;19.81;80.34;99961.91;12220371;19;19931;-78
2023/10/02 19:21:56;;;;;;;;;;;;;;;19.78;80.44;99965.28;12201999;19;20058;-78
2023/10/02 19:25:59;;;;;;;;;;;;;;;19.73;82.38;99971.81;12219007;19;19951;-79
2023/10/02 19:30:02;;;;;;;;;;;;;;;19.70;83.41;99968.81;12212912;19;20457;-79
2023/10/02 19:34:05;;;;;;;;;;;;;;;19.69;84.09;99969.94;12198043;19;20339;-78
2023/10/02 19:38:09;;;;;;;;;;;;;;;19.66;83.00;99951.84;12218672;19;21623;-79
2023/10/02 19:42:11;;;;;;;;;;;;;;;19.62;83.23;99955.50;12220030;19;19975;-78
2023/10/02 19:46:14;;;;;;;;;;;;;;;19.56;83.57;99955.59;12196564;19;20331;-78
2023/10/02 19:50:16;;;;;;;;;;;;;;;19.53;82.93;99950.59;12219706;19;19918;-80
2023/10/02 19:54:21;;;;;;;;;;;;;;;19.49;83.08;99932.81;12220764;19;20316;-80
2023/10/02 19:58:24;;;;;;;;;;;;;;;19.44;81.94;99930.09;12198971;19;19923;-79
2023/10/02 20:02:27;;;;;;;;;;;;;;;19.41;82.27;99927.91;12223846;19;19914;-81
2023/10/02 20:06:32;;;;;;;;;;;;;;;19.40;82.27;99923.47;12223150;19;19921;-78
2023/10/02 20:10:43;;;;;;;;;;;;;;;19.40;81.66;99914.25;12198490;19;19910;-81
2023/10/02 20:14:45;;;;;;;;;;;;;;;19.39;82.15;99912.59;12228374;19;19914;-79
2023/10/02 20:18:48;;;;;;;;;;;;;;;19.41;81.39;99908.34;12196866;19;19914;-77
2023/10/02 20:22:50;;;;;;;;;;;;;;;19.43;81.31;99894.91;12220924;19;20369;-79
2023/10/02 20:26:51;;;;;;;;;;;;;;;19.45;80.48;99891.78;12219278;19;19926;-78
2023/10/02 20:30:55;;;;;;;;;;;;;;;19.52;79.70;99883.84;12193212;19;19915;-79
2023/10/02 20:34:57;;;;;;;;;;;;;;;19.54;79.43;99890.81;12218102;19;19915;-78
2023/10/02 20:38:59;;;;;;;;;;;;;;;19.60;79.52;99894.31;12217373;19;20335;-78
2023/10/02 20:43:04;;;;;;;;;;;;;;;19.61;79.23;99886.78;12195839;19;20585;-82
2023/10/02 20:47:06;;;;;;;;;;;;;;;19.63;78.96;99882.53;12221085;19;19974;-80
2023/10/02 20:51:16;;;;;;;;;;;;;;;19.66;78.96;99867.13;12226264;19;19910;-80
2023/10/02 20:55:20;;;;;;;;;;;;;;;19.65;78.90;99863.50;12205075;19;19910;-79
2023/10/02 20:59:23;;;;;;;;;;;;;;;19.61;80.74;99868.03;12222079;19;20006;-77
2023/10/02 21:03:26;;;;;;;;;;;;;;;19.45;82.24;99877.81;12221002;19;19919;-81
2023/10/02 21:07:30;;;;;;;;;;;;;;;19.33;84.15;99878.31;12195921;19;19957;-80
2023/10/02 21:11:34;;;;;;;;;;;;;;;19.18;86.51;99875.78;12218718;19;19903;-80
2023/10/02 21:15:36;;;;;;;;;;;;;;;19.03;87.93;99874.91;12222342;19;19931;-79
2023/10/02 21:19:39;;;;;;;;;;;;;;;18.93;89.64;99879.84;12199187;19;19923;-83
2023/10/02 21:23:41;;;;;;;;;;;;;;;18.82;90.76;99868.81;12222292;19;20385;-81
2023/10/02 21:27:43;;;;;;;;;;;;;;;18.77;91.63;99874.50;12197974;19;19926;-80
2023/10/02 21:31:46;;;;;;;;;;;;;;;18.74;92.45;99874.25;12223100;19;19947;-81